sensor_id;sensor_type;location;lat;lon;timestamp;temperature;humidity
12557;DHT22;6344;49.932;8.308;2023-04-23T00:01:07;12.00;99.90
12557;DHT22;6344;49.932;8.308;2023-04-23T00:03:35;12.00;99.90
12557;DHT22;6344;49.932;8.308;2023-04-23T00:06:04;12.10;99.90
12557;DHT22;6344;49.932;8.308;2023-04-23T00:08:32;12.10;99.90
12557;DHT22;6344;49.932;8.308;2023-04-23T00:11:01;12.00;99.90
12557;DHT22;6344;49.932;8.308;2023-04-23T00:13:28;12.00;99.90
12557;DHT22;6344;49.932;8.308;2023-04-23T00:15:55;12.10;99.90
12557;DHT22;6344;49.932;8.308;2023-04-23T00:18:22;12.10;99.90
12557;DHT22;6344;49.932;8.308;2023-04-23T00:20:48;12.10;99.90
12557;DHT22;6344;49.932;8.308;2023-04-23T00:23:15;12.10;99.90
12557;DHT22;6344;49.932;8.308;2023-04-23T00:25:42;12.10;99.90
12557;DHT22;6344;49.932;8.308;2023-04-23T00:28:10;12.00;99.90
12557;DHT22;6344;49.932;8.308;2023-04-23T00:30:36;12.00;99.90
12557;DHT22;6344;49.932;8.308;2023-04-23T00:33:03;12.00;99.90
12557;DHT22;6344;49.932;8.308;2023-04-23T00:35:30;12.00;99.90
12557;DHT22;6344;49.932;8.308;2023-04-23T00:37:56;12.00;99.90
12557;DHT22;6344;49.932;8.308;2023-04-23T00:40:23;12.00;99.90
12557;DHT22;6344;49.932;8.308;2023-04-23T00:42:51;12.00;99.90
12557;DHT22;6344;49.932;8.308;2023-04-23T00:45:19;12.00;99.90
12557;DHT22;6344;49.932;8.308;2023-04-23T00:47:47;12.00;99.90
12557;DHT22;6344;49.932;8.308;2023-04-23T00:50:15;12.00;99.90
12557;DHT22;6344;49.932;8.308;2023-04-23T00:52:41;12.00;99.90
12557;DHT22;6344;49.932;8.308;2023-04-23T00:55:08;11.90;99.90
12557;DHT22;6344;49.932;8.308;2023-04-23T00:57:35;12.00;99.90
12557;DHT22;6344;49.932;8.308;2023-04-23T01:00:04;11.90;99.90
12557;DHT22;6344;49.932;8.308;2023-04-23T01:02:34;12.00;99.90
12557;DHT22;6344;49.932;8.308;2023-04-23T01:05:03;11.90;99.90
12557;DHT22;6344;49.932;8.308;2023-04-23T01:07:31;11.90;99.90
12557;DHT22;6344;49.932;8.308;2023-04-23T01:09:59;11.90;99.90
12557;DHT22;6344;49.932;8.308;2023-04-23T01:12:26;11.90;99.90
12557;DHT22;6344;49.932;8.308;2023-04-23T01:14:53;11.90;99.90
12557;DHT22;6344;49.932;8.308;2023-04-23T01:17:20;11.80;99.90
12557;DHT22;6344;49.932;8.308;2023-04-23T01:19:48;11.90;99.90
12557;DHT22;6344;49.932;8.308;2023-04-23T01:22:16;11.80;99.90
12557;DHT22;6344;49.932;8.308;2023-04-23T01:24:43;11.80;99.90
12557;DHT22;6344;49.932;8.308;2023-04-23T01:27:10;11.80;99.90
12557;DHT22;6344;49.932;8.308;2023-04-23T01:29:38;11.80;99.90
12557;DHT22;6344;49.932;8.308;2023-04-23T01:32:06;11.80;99.90
12557;DHT22;6344;49.932;8.308;2023-04-23T01:34:34;11.80;99.90
12557;DHT22;6344;49.932;8.308;2023-04-23T01:37:01;11.90;99.90
12557;DHT22;6344;49.932;8.308;2023-04-23T01:39:30;11.80;99.90
12557;DHT22;6344;49.932;8.308;2023-04-23T01:41:56;11.80;99.90
12557;DHT22;6344;49.932;8.308;2023-04-23T01:44:24;11.90;99.90
12557;DHT22;6344;49.932;8.308;2023-04-23T01:46:52;11.80;99.90
12557;DHT22;6344;49.932;8.308;2023-04-23T01:49:18;11.90;99.90
12557;DHT22;6344;49.932;8.308;2023-04-23T01:51:45;11.90;99.90
12557;DHT22;6344;49.932;8.308;2023-04-23T01:54:12;11.90;99.90
12557;DHT22;6344;49.932;8.308;2023-04-23T01:56:40;11.80;99.90
12557;DHT22;6344;49.932;8.308;2023-04-23T01:59:06;11.80;99.90
12557;DHT22;6344;49.932;8.308;2023-04-23T02:01:41;11.80;99.90
12557;DHT22;6344;49.932;8.308;2023-04-23T02:04:09;11.80;99.90
12557;DHT22;6344;49.932;8.308;2023-04-23T02:06:37;11.80;99.90
12557;DHT22;6344;49.932;8.308;2023-04-23T02:09:04;11.70;99.90
12557;DHT22;6344;49.932;8.308;2023-04-23T02:11:30;11.80;99.90
12557;DHT22;6344;49.932;8.308;2023-04-23T02:13:59;11.80;99.90
12557;DHT22;6344;49.932;8.308;2023-04-23T02:16:26;11.70;99.90
12557;DHT22;6344;49.932;8.308;2023-04-23T02:18:53;11.80;99.90
12557;DHT22;6344;49.932;8.308;2023-04-23T02:21:20;11.80;99.90
12557;DHT22;6344;49.932;8.308;2023-04-23T02:23:47;11.80;99.90
12557;DHT22;6344;49.932;8.308;2023-04-23T02:26:13;11.70;99.90
12557;DHT22;6344;49.932;8.308;2023-04-23T02:28:40;11.70;99.90
12557;DHT22;6344;49.932;8.308;2023-04-23T02:31:08;11.70;99.90
12557;DHT22;6344;49.932;8.308;2023-04-23T02:33:35;11.70;99.90
12557;DHT22;6344;49.932;8.308;2023-04-23T02:36:01;11.70;99.90
12557;DHT22;6344;49.932;8.308;2023-04-23T02:38:28;11.70;99.90
12557;DHT22;6344;49.932;8.308;2023-04-23T02:40:55;11.70;99.90
12557;DHT22;6344;49.932;8.308;2023-04-23T02:43:21;11.70;99.90
12557;DHT22;6344;49.932;8.308;2023-04-23T02:45:48;11.70;99.90
12557;DHT22;6344;49.932;8.308;2023-04-23T02:48:16;11.70;99.90
12557;DHT22;6344;49.932;8.308;2023-04-23T02:50:43;11.70;99.90
12557;DHT22;6344;49.932;8.308;2023-04-23T02:53:11;11.60;99.90
12557;DHT22;6344;49.932;8.308;2023-04-23T02:55:37;11.70;99.90
12557;DHT22;6344;49.932;8.308;2023-04-23T02:58:04;11.60;99.90
12557;DHT22;6344;49.932;8.308;2023-04-23T03:00:31;11.70;99.90
12557;DHT22;6344;49.932;8.308;2023-04-23T03:02:57;11.60;99.90
12557;DHT22;6344;49.932;8.308;2023-04-23T03:05:26;11.60;99.90
12557;DHT22;6344;49.932;8.308;2023-04-23T03:07:52;11.60;99.90
12557;DHT22;6344;49.932;8.308;2023-04-23T03:10:19;11.60;99.90
12557;DHT22;6344;49.932;8.308;2023-04-23T03:12:46;11.60;99.90
12557;DHT22;6344;49.932;8.308;2023-04-23T03:15:12;11.60;99.90
12557;DHT22;6344;49.932;8.308;2023-04-23T03:17:39;11.60;99.90
12557;DHT22;6344;49.932;8.308;2023-04-23T03:20:07;11.60;99.90
12557;DHT22;6344;49.932;8.308;2023-04-23T03:22:37;11.60;99.90
12557;DHT22;6344;49.932;8.308;2023-04-23T03:25:04;11.60;99.90
12557;DHT22;6344;49.932;8.308;2023-04-23T03:27:31;11.60;99.90
12557;DHT22;6344;49.932;8.308;2023-04-23T03:29:58;11.60;99.90
12557;DHT22;6344;49.932;8.308;2023-04-23T03:32:24;11.60;99.90
12557;DHT22;6344;49.932;8.308;2023-04-23T03:34:51;11.60;99.90
12557;DHT22;6344;49.932;8.308;2023-04-23T03:37:18;11.60;99.90
12557;DHT22;6344;49.932;8.308;2023-04-23T03:39:46;11.60;99.90
12557;DHT22;6344;49.932;8.308;2023-04-23T03:42:12;11.70;99.90
12557;DHT22;6344;49.932;8.308;2023-04-23T03:44:39;11.60;99.90
12557;DHT22;6344;49.932;8.308;2023-04-23T03:47:05;11.50;99.90
12557;DHT22;6344;49.932;8.308;2023-04-23T03:49:32;11.50;99.90
12557;DHT22;6344;49.932;8.308;2023-04-23T03:51:59;11.50;99.90
12557;DHT22;6344;49.932;8.308;2023-04-23T03:54:25;11.50;99.90
12557;DHT22;6344;49.932;8.308;2023-04-23T03:56:54;11.50;99.90
12557;DHT22;6344;49.932;8.308;2023-04-23T03:59:22;11.50;99.90
12557;DHT22;6344;49.932;8.308;2023-04-23T04:01:48;11.50;99.90
12557;DHT22;6344;49.932;8.308;2023-04-23T04:04:15;11.50;99.90
12557;DHT22;6344;49.932;8.308;2023-04-23T04:06:42;11.50;99.90
12557;DHT22;6344;49.932;8.308;2023-04-23T04:09:08;11.40;99.90
12557;DHT22;6344;49.932;8.308;2023-04-23T04:11:35;11.40;99.90
12557;DHT22;6344;49.932;8.308;2023-04-23T04:14:03;11.40;99.90
12557;DHT22;6344;49.932;8.308;2023-04-23T04:16:30;11.40;99.90
12557;DHT22;6344;49.932;8.308;2023-04-23T04:18:57;11.40;99.90
12557;DHT22;6344;49.932;8.308;2023-04-23T04:21:24;11.30;99.90
12557;DHT22;6344;49.932;8.308;2023-04-23T04:23:52;11.30;99.90
12557;DHT22;6344;49.932;8.308;2023-04-23T04:26:19;11.30;99.90
12557;DHT22;6344;49.932;8.308;2023-04-23T04:28:45;11.40;99.90
12557;DHT22;6344;49.932;8.308;2023-04-23T04:31:14;11.30;99.90
12557;DHT22;6344;49.932;8.308;2023-04-23T04:33:41;11.30;99.90
12557;DHT22;6344;49.932;8.308;2023-04-23T04:36:10;11.30;99.90
12557;DHT22;6344;49.932;8.308;2023-04-23T04:38:38;11.30;99.90
12557;DHT22;6344;49.932;8.308;2023-04-23T04:41:04;11.20;99.90
12557;DHT22;6344;49.932;8.308;2023-04-23T04:43:32;11.30;99.90
12557;DHT22;6344;49.932;8.308;2023-04-23T04:45:59;11.20;99.90
12557;DHT22;6344;49.932;8.308;2023-04-23T04:48:27;11.30;99.90
12557;DHT22;6344;49.932;8.308;2023-04-23T04:50:53;11.20;99.90
12557;DHT22;6344;49.932;8.308;2023-04-23T04:53:20;11.20;99.90
12557;DHT22;6344;49.932;8.308;2023-04-23T04:55:47;11.20;99.90
12557;DHT22;6344;49.932;8.308;2023-04-23T04:58:14;11.20;99.90
12557;DHT22;6344;49.932;8.308;2023-04-23T05:00:41;11.20;99.90
12557;DHT22;6344;49.932;8.308;2023-04-23T05:03:08;11.20;99.90
12557;DHT22;6344;49.932;8.308;2023-04-23T05:05:36;11.20;99.90
12557;DHT22;6344;49.932;8.308;2023-04-23T05:08:02;11.20;99.90
12557;DHT22;6344;49.932;8.308;2023-04-23T05:10:29;11.20;99.90
12557;DHT22;6344;49.932;8.308;2023-04-23T05:12:56;11.10;99.90
12557;DHT22;6344;49.932;8.308;2023-04-23T05:15:22;11.10;99.90
12557;DHT22;6344;49.932;8.308;2023-04-23T05:17:49;11.00;99.90
12557;DHT22;6344;49.932;8.308;2023-04-23T05:20:18;11.10;99.90
12557;DHT22;6344;49.932;8.308;2023-04-23T05:22:46;11.10;99.90
12557;DHT22;6344;49.932;8.308;2023-04-23T05:25:13;11.00;99.90
12557;DHT22;6344;49.932;8.308;2023-04-23T05:27:40;10.90;99.90
12557;DHT22;6344;49.932;8.308;2023-04-23T05:30:08;10.80;99.90
12557;DHT22;6344;49.932;8.308;2023-04-23T05:32:35;10.70;99.90
12557;DHT22;6344;49.932;8.308;2023-04-23T05:35:03;10.70;99.90
12557;DHT22;6344;49.932;8.308;2023-04-23T05:37:30;10.70;99.90
12557;DHT22;6344;49.932;8.308;2023-04-23T05:39:58;11.00;99.90
12557;DHT22;6344;49.932;8.308;2023-04-23T05:42:26;11.10;99.90
12557;DHT22;6344;49.932;8.308;2023-04-23T05:44:53;11.10;99.90
12557;DHT22;6344;49.932;8.308;2023-04-23T05:47:20;11.00;99.90
12557;DHT22;6344;49.932;8.308;2023-04-23T05:49:47;11.10;99.90
12557;DHT22;6344;49.932;8.308;2023-04-23T05:52:13;11.30;99.90
12557;DHT22;6344;49.932;8.308;2023-04-23T05:54:40;11.10;99.90
12557;DHT22;6344;49.932;8.308;2023-04-23T05:57:09;11.30;99.90
12557;DHT22;6344;49.932;8.308;2023-04-23T05:59:36;11.50;99.90
12557;DHT22;6344;49.932;8.308;2023-04-23T06:02:02;11.50;99.90
12557;DHT22;6344;49.932;8.308;2023-04-23T06:04:29;12.00;99.90
12557;DHT22;6344;49.932;8.308;2023-04-23T06:06:56;12.10;99.90
12557;DHT22;6344;49.932;8.308;2023-04-23T06:09:22;12.00;99.90
12557;DHT22;6344;49.932;8.308;2023-04-23T06:11:50;12.20;99.90
12557;DHT22;6344;49.932;8.308;2023-04-23T06:14:19;12.50;99.90
12557;DHT22;6344;49.932;8.308;2023-04-23T06:16:45;12.40;99.90
12557;DHT22;6344;49.932;8.308;2023-04-23T06:19:12;12.60;99.90
12557;DHT22;6344;49.932;8.308;2023-04-23T06:21:39;12.90;99.90
12557;DHT22;6344;49.932;8.308;2023-04-23T06:24:06;13.30;99.90
12557;DHT22;6344;49.932;8.308;2023-04-23T06:26:32;13.40;99.90
12557;DHT22;6344;49.932;8.308;2023-04-23T06:28:59;13.60;99.90
12557;DHT22;6344;49.932;8.308;2023-04-23T06:31:27;13.60;99.90
12557;DHT22;6344;49.932;8.308;2023-04-23T06:33:54;13.70;99.90
12557;DHT22;6344;49.932;8.308;2023-04-23T06:36:21;14.10;99.90
12557;DHT22;6344;49.932;8.308;2023-04-23T06:38:47;14.30;99.90
12557;DHT22;6344;49.932;8.308;2023-04-23T06:41:14;14.20;99.90
12557;DHT22;6344;49.932;8.308;2023-04-23T06:43:41;14.50;99.90
12557;DHT22;6344;49.932;8.308;2023-04-23T06:46:07;15.00;99.90
12557;DHT22;6344;49.932;8.308;2023-04-23T06:48:36;15.30;99.90
12557;DHT22;6344;49.932;8.308;2023-04-23T06:51:03;15.50;99.90
12557;DHT22;6344;49.932;8.308;2023-04-23T06:53:30;15.30;99.90
12557;DHT22;6344;49.932;8.308;2023-04-23T06:55:57;15.70;99.90
12557;DHT22;6344;49.932;8.308;2023-04-23T06:58:23;16.10;99.90
12557;DHT22;6344;49.932;8.308;2023-04-23T07:00:55;15.70;99.90
12557;DHT22;6344;49.932;8.308;2023-04-23T07:03:24;15.90;99.90
12557;DHT22;6344;49.932;8.308;2023-04-23T07:05:52;16.10;99.90
12557;DHT22;6344;49.932;8.308;2023-04-23T07:08:19;16.40;99.90
12557;DHT22;6344;49.932;8.308;2023-04-23T07:10:46;16.90;99.90
12557;DHT22;6344;49.932;8.308;2023-04-23T07:13:12;17.00;99.90
12557;DHT22;6344;49.932;8.308;2023-04-23T07:15:39;17.40;99.90
12557;DHT22;6344;49.932;8.308;2023-04-23T07:18:07;17.60;99.90
12557;DHT22;6344;49.932;8.308;2023-04-23T07:20:34;17.80;99.90
12557;DHT22;6344;49.932;8.308;2023-04-23T07:23:02;18.10;99.90
12557;DHT22;6344;49.932;8.308;2023-04-23T07:25:29;18.10;99.90
12557;DHT22;6344;49.932;8.308;2023-04-23T07:27:56;18.50;99.90
12557;DHT22;6344;49.932;8.308;2023-04-23T07:30:25;19.10;99.90
12557;DHT22;6344;49.932;8.308;2023-04-23T07:32:52;19.10;99.90
12557;DHT22;6344;49.932;8.308;2023-04-23T07:35:20;18.40;99.90
12557;DHT22;6344;49.932;8.308;2023-04-23T07:37:46;18.10;99.90
12557;DHT22;6344;49.932;8.308;2023-04-23T07:40:19;17.50;99.90
12557;DHT22;6344;49.932;8.308;2023-04-23T07:42:46;17.10;99.90
12557;DHT22;6344;49.932;8.308;2023-04-23T07:45:13;16.70;99.90
12557;DHT22;6344;49.932;8.308;2023-04-23T07:47:40;16.60;99.90
12557;DHT22;6344;49.932;8.308;2023-04-23T07:50:07;16.50;99.90
12557;DHT22;6344;49.932;8.308;2023-04-23T07:52:34;16.60;99.90
12557;DHT22;6344;49.932;8.308;2023-04-23T07:55:01;16.70;99.90
12557;DHT22;6344;49.932;8.308;2023-04-23T07:57:29;16.50;99.90
12557;DHT22;6344;49.932;8.308;2023-04-23T07:59:55;16.50;99.90
12557;DHT22;6344;49.932;8.308;2023-04-23T08:02:22;16.40;99.90
12557;DHT22;6344;49.932;8.308;2023-04-23T08:04:50;16.30;99.90
12557;DHT22;6344;49.932;8.308;2023-04-23T08:07:17;15.70;99.90
12557;DHT22;6344;49.932;8.308;2023-04-23T08:09:44;15.80;99.90
12557;DHT22;6344;49.932;8.308;2023-04-23T08:12:11;15.60;99.90
12557;DHT22;6344;49.932;8.308;2023-04-23T08:14:39;15.80;99.90
12557;DHT22;6344;49.932;8.308;2023-04-23T08:17:06;16.10;99.90
12557;DHT22;6344;49.932;8.308;2023-04-23T08:19:32;16.40;99.90
12557;DHT22;6344;49.932;8.308;2023-04-23T08:21:59;16.40;99.90
12557;DHT22;6344;49.932;8.308;2023-04-23T08:24:26;16.40;99.90
12557;DHT22;6344;49.932;8.308;2023-04-23T08:26:52;16.30;99.90
12557;DHT22;6344;49.932;8.308;2023-04-23T08:29:19;16.50;99.90
12557;DHT22;6344;49.932;8.308;2023-04-23T08:31:47;16.90;99.90
12557;DHT22;6344;49.932;8.308;2023-04-23T08:34:14;17.20;99.90
12557;DHT22;6344;49.932;8.308;2023-04-23T08:36:41;17.40;99.90
12557;DHT22;6344;49.932;8.308;2023-04-23T08:39:07;17.70;99.90
12557;DHT22;6344;49.932;8.308;2023-04-23T08:41:38;17.70;99.90
12557;DHT22;6344;49.932;8.308;2023-04-23T08:44:12;17.60;99.90
12557;DHT22;6344;49.932;8.308;2023-04-23T08:46:41;17.70;99.90
12557;DHT22;6344;49.932;8.308;2023-04-23T08:49:13;17.30;99.90
12557;DHT22;6344;49.932;8.308;2023-04-23T08:51:42;17.60;99.90
12557;DHT22;6344;49.932;8.308;2023-04-23T08:54:15;18.60;99.90
12557;DHT22;6344;49.932;8.308;2023-04-23T08:56:43;19.30;99.90
12557;DHT22;6344;49.932;8.308;2023-04-23T08:59:10;19.10;99.90
12557;DHT22;6344;49.932;8.308;2023-04-23T09:01:37;18.90;99.90
12557;DHT22;6344;49.932;8.308;2023-04-23T09:04:04;18.60;99.90
12557;DHT22;6344;49.932;8.308;2023-04-23T09:06:33;18.00;99.90
12557;DHT22;6344;49.932;8.308;2023-04-23T09:09:00;17.90;99.90
12557;DHT22;6344;49.932;8.308;2023-04-23T09:11:27;18.00;99.90
12557;DHT22;6344;49.932;8.308;2023-04-23T09:13:55;17.60;99.90
12557;DHT22;6344;49.932;8.308;2023-04-23T09:16:22;17.70;99.90
12557;DHT22;6344;49.932;8.308;2023-04-23T09:18:49;17.70;99.90
12557;DHT22;6344;49.932;8.308;2023-04-23T09:21:16;17.30;99.90
12557;DHT22;6344;49.932;8.308;2023-04-23T09:23:44;17.30;99.90
12557;DHT22;6344;49.932;8.308;2023-04-23T09:26:18;17.40;99.90
12557;DHT22;6344;49.932;8.308;2023-04-23T09:28:48;17.60;99.90
12557;DHT22;6344;49.932;8.308;2023-04-23T09:31:19;17.70;99.90
12557;DHT22;6344;49.932;8.308;2023-04-23T09:33:50;17.70;99.90
12557;DHT22;6344;49.932;8.308;2023-04-23T09:36:20;17.80;99.90
12557;DHT22;6344;49.932;8.308;2023-04-23T09:38:49;18.60;99.90
12557;DHT22;6344;49.932;8.308;2023-04-23T09:41:20;20.10;99.90
12557;DHT22;6344;49.932;8.308;2023-04-23T09:43:47;21.50;99.90
12557;DHT22;6344;49.932;8.308;2023-04-23T09:46:13;22.10;99.90
12557;DHT22;6344;49.932;8.308;2023-04-23T09:48:40;22.30;99.90
12557;DHT22;6344;49.932;8.308;2023-04-23T09:51:07;21.80;99.90
12557;DHT22;6344;49.932;8.308;2023-04-23T09:53:40;20.90;99.90
12557;DHT22;6344;49.932;8.308;2023-04-23T09:56:09;20.60;99.90
12557;DHT22;6344;49.932;8.308;2023-04-23T09:58:36;20.20;99.90
12557;DHT22;6344;49.932;8.308;2023-04-23T10:01:07;20.10;99.90
12557;DHT22;6344;49.932;8.308;2023-04-23T10:03:34;19.70;99.90
12557;DHT22;6344;49.932;8.308;2023-04-23T10:06:00;19.50;99.90
12557;DHT22;6344;49.932;8.308;2023-04-23T10:08:27;19.20;99.90
12557;DHT22;6344;49.932;8.308;2023-04-23T10:10:54;19.20;99.90
12557;DHT22;6344;49.932;8.308;2023-04-23T10:13:22;19.40;99.90
12557;DHT22;6344;49.932;8.308;2023-04-23T10:15:49;19.50;99.90
12557;DHT22;6344;49.932;8.308;2023-04-23T10:18:18;19.40;99.90
12557;DHT22;6344;49.932;8.308;2023-04-23T10:20:47;18.90;99.90
12557;DHT22;6344;49.932;8.308;2023-04-23T10:23:16;18.50;99.90
12557;DHT22;6344;49.932;8.308;2023-04-23T10:25:44;18.80;99.90
12557;DHT22;6344;49.932;8.308;2023-04-23T10:28:14;18.80;99.90
12557;DHT22;6344;49.932;8.308;2023-04-23T10:30:44;18.50;99.90
12557;DHT22;6344;49.932;8.308;2023-04-23T10:33:11;18.50;99.90
12557;DHT22;6344;49.932;8.308;2023-04-23T10:35:39;18.30;99.90
12557;DHT22;6344;49.932;8.308;2023-04-23T10:38:06;18.30;99.90
12557;DHT22;6344;49.932;8.308;2023-04-23T10:40:33;18.60;99.90
12557;DHT22;6344;49.932;8.308;2023-04-23T10:43:02;18.70;99.90
12557;DHT22;6344;49.932;8.308;2023-04-23T10:45:30;19.00;99.90
12557;DHT22;6344;49.932;8.308;2023-04-23T10:47:58;19.70;99.90
12557;DHT22;6344;49.932;8.308;2023-04-23T10:50:27;20.00;99.90
12557;DHT22;6344;49.932;8.308;2023-04-23T10:52:55;19.60;99.90
12557;DHT22;6344;49.932;8.308;2023-04-23T10:55:23;19.00;99.90
12557;DHT22;6344;49.932;8.308;2023-04-23T10:58:01;18.60;99.90
12557;DHT22;6344;49.932;8.308;2023-04-23T11:00:40;18.40;99.90
12557;DHT22;6344;49.932;8.308;2023-04-23T11:03:31;18.10;99.90
12557;DHT22;6344;49.932;8.308;2023-04-23T11:06:00;17.70;99.90
12557;DHT22;6344;49.932;8.308;2023-04-23T11:08:28;17.60;99.90
12557;DHT22;6344;49.932;8.308;2023-04-23T11:10:58;17.90;99.90
12557;DHT22;6344;49.932;8.308;2023-04-23T11:13:26;17.70;99.90
12557;DHT22;6344;49.932;8.308;2023-04-23T11:16:15;17.70;99.90
12557;DHT22;6344;49.932;8.308;2023-04-23T11:19:00;18.00;99.90
12557;DHT22;6344;49.932;8.308;2023-04-23T11:21:59;18.40;99.90
12557;DHT22;6344;49.932;8.308;2023-04-23T11:24:27;18.30;99.90
12557;DHT22;6344;49.932;8.308;2023-04-23T11:26:54;18.60;99.90
12557;DHT22;6344;49.932;8.308;2023-04-23T11:29:23;19.20;99.90
12557;DHT22;6344;49.932;8.308;2023-04-23T11:31:50;19.70;99.90
12557;DHT22;6344;49.932;8.308;2023-04-23T11:34:18;20.10;99.90
12557;DHT22;6344;49.932;8.308;2023-04-23T11:36:47;21.00;99.90
12557;DHT22;6344;49.932;8.308;2023-04-23T11:39:14;21.50;99.90
12557;DHT22;6344;49.932;8.308;2023-04-23T11:41:40;22.20;99.90
12557;DHT22;6344;49.932;8.308;2023-04-23T11:44:08;22.40;99.90
12557;DHT22;6344;49.932;8.308;2023-04-23T11:46:36;22.40;99.90
12557;DHT22;6344;49.932;8.308;2023-04-23T11:49:02;22.20;99.90
12557;DHT22;6344;49.932;8.308;2023-04-23T11:51:31;21.90;99.90
12557;DHT22;6344;49.932;8.308;2023-04-23T11:54:02;21.60;99.90
12557;DHT22;6344;49.932;8.308;2023-04-23T11:56:29;21.50;99.90
12557;DHT22;6344;49.932;8.308;2023-04-23T11:58:59;20.80;99.90
12557;DHT22;6344;49.932;8.308;2023-04-23T12:01:39;20.30;99.90
12557;DHT22;6344;49.932;8.308;2023-04-23T12:04:09;21.00;99.90
12557;DHT22;6344;49.932;8.308;2023-04-23T12:06:39;22.00;99.90
12557;DHT22;6344;49.932;8.308;2023-04-23T12:09:06;22.90;99.90
12557;DHT22;6344;49.932;8.308;2023-04-23T12:11:35;23.30;99.90
12557;DHT22;6344;49.932;8.308;2023-04-23T12:14:01;23.90;99.90
12557;DHT22;6344;49.932;8.308;2023-04-23T12:16:39;24.10;99.90
12557;DHT22;6344;49.932;8.308;2023-04-23T12:19:09;24.20;99.90
12557;DHT22;6344;49.932;8.308;2023-04-23T12:21:52;23.50;99.90
12557;DHT22;6344;49.932;8.308;2023-04-23T12:24:21;23.50;99.90
12557;DHT22;6344;49.932;8.308;2023-04-23T12:26:49;23.90;99.90
12557;DHT22;6344;49.932;8.308;2023-04-23T12:29:19;22.90;99.90
12557;DHT22;6344;49.932;8.308;2023-04-23T12:31:46;23.30;99.90
12557;DHT22;6344;49.932;8.308;2023-04-23T12:34:14;23.60;99.90
12557;DHT22;6344;49.932;8.308;2023-04-23T12:36:43;24.30;99.90
12557;DHT22;6344;49.932;8.308;2023-04-23T12:39:23;24.50;99.90
12557;DHT22;6344;49.932;8.308;2023-04-23T12:41:51;23.70;99.90
12557;DHT22;6344;49.932;8.308;2023-04-23T12:44:18;22.80;99.90
12557;DHT22;6344;49.932;8.308;2023-04-23T12:46:48;22.20;99.90
12557;DHT22;6344;49.932;8.308;2023-04-23T12:49:15;21.50;99.90
12557;DHT22;6344;49.932;8.308;2023-04-23T12:51:42;21.60;99.90
12557;DHT22;6344;49.932;8.308;2023-04-23T12:54:09;22.60;99.90
12557;DHT22;6344;49.932;8.308;2023-04-23T12:56:37;23.00;99.90
12557;DHT22;6344;49.932;8.308;2023-04-23T12:59:04;23.20;99.90
12557;DHT22;6344;49.932;8.308;2023-04-23T13:01:31;23.40;99.90
12557;DHT22;6344;49.932;8.308;2023-04-23T13:03:58;22.90;99.90
12557;DHT22;6344;49.932;8.308;2023-04-23T13:06:25;23.10;99.90
12557;DHT22;6344;49.932;8.308;2023-04-23T13:08:53;24.00;99.90
12557;DHT22;6344;49.932;8.308;2023-04-23T13:11:21;24.80;99.90
12557;DHT22;6344;49.932;8.308;2023-04-23T13:13:50;24.80;99.90
12557;DHT22;6344;49.932;8.308;2023-04-23T13:16:17;24.80;99.90
12557;DHT22;6344;49.932;8.308;2023-04-23T13:18:44;24.50;99.90
12557;DHT22;6344;49.932;8.308;2023-04-23T13:21:10;24.60;99.90
12557;DHT22;6344;49.932;8.308;2023-04-23T13:23:37;24.80;99.90
12557;DHT22;6344;49.932;8.308;2023-04-23T13:26:04;25.10;99.90
12557;DHT22;6344;49.932;8.308;2023-04-23T13:28:33;25.10;99.90
12557;DHT22;6344;49.932;8.308;2023-04-23T13:31:01;23.90;99.90
12557;DHT22;6344;49.932;8.308;2023-04-23T13:33:28;22.90;99.90
12557;DHT22;6344;49.932;8.308;2023-04-23T13:35:55;22.30;99.90
12557;DHT22;6344;49.932;8.308;2023-04-23T13:38:23;22.20;99.90
12557;DHT22;6344;49.932;8.308;2023-04-23T13:40:50;22.50;99.90
12557;DHT22;6344;49.932;8.308;2023-04-23T13:43:16;23.50;99.90
12557;DHT22;6344;49.932;8.308;2023-04-23T13:45:43;24.30;99.90
12557;DHT22;6344;49.932;8.308;2023-04-23T13:48:12;24.50;99.90
12557;DHT22;6344;49.932;8.308;2023-04-23T13:50:39;24.70;99.90
12557;DHT22;6344;49.932;8.308;2023-04-23T13:53:07;24.50;99.90
12557;DHT22;6344;49.932;8.308;2023-04-23T13:55:33;24.10;99.90
12557;DHT22;6344;49.932;8.308;2023-04-23T13:58:00;23.70;99.90
12557;DHT22;6344;49.932;8.308;2023-04-23T14:00:27;24.20;99.90
12557;DHT22;6344;49.932;8.308;2023-04-23T14:02:54;24.20;99.90
12557;DHT22;6344;49.932;8.308;2023-04-23T14:05:22;24.10;99.90
12557;DHT22;6344;49.932;8.308;2023-04-23T14:07:49;24.20;99.90
12557;DHT22;6344;49.932;8.308;2023-04-23T14:10:16;24.40;99.90
12557;DHT22;6344;49.932;8.308;2023-04-23T14:12:43;23.90;99.90
12557;DHT22;6344;49.932;8.308;2023-04-23T14:15:11;23.90;99.90
12557;DHT22;6344;49.932;8.308;2023-04-23T14:17:38;24.00;99.90
12557;DHT22;6344;49.932;8.308;2023-04-23T14:20:06;23.90;99.90
12557;DHT22;6344;49.932;8.308;2023-04-23T14:22:35;23.60;99.90
12557;DHT22;6344;49.932;8.308;2023-04-23T14:25:03;23.40;99.90
12557;DHT22;6344;49.932;8.308;2023-04-23T14:27:38;22.50;99.90
12557;DHT22;6344;49.932;8.308;2023-04-23T14:30:13;22.40;99.90
12557;DHT22;6344;49.932;8.308;2023-04-23T14:32:40;22.40;99.90
12557;DHT22;6344;49.932;8.308;2023-04-23T14:35:08;22.10;99.90
12557;DHT22;6344;49.932;8.308;2023-04-23T14:37:36;22.10;99.90
12557;DHT22;6344;49.932;8.308;2023-04-23T14:40:03;21.90;99.90
12557;DHT22;6344;49.932;8.308;2023-04-23T14:42:30;21.60;99.90
12557;DHT22;6344;49.932;8.308;2023-04-23T14:44:58;21.60;99.90
12557;DHT22;6344;49.932;8.308;2023-04-23T14:47:25;21.00;99.90
12557;DHT22;6344;49.932;8.308;2023-04-23T14:49:52;21.10;99.90
12557;DHT22;6344;49.932;8.308;2023-04-23T14:52:18;21.20;99.90
12557;DHT22;6344;49.932;8.308;2023-04-23T14:54:46;21.30;99.90
12557;DHT22;6344;49.932;8.308;2023-04-23T14:57:13;21.50;99.90
12557;DHT22;6344;49.932;8.308;2023-04-23T14:59:40;21.80;99.90
12557;DHT22;6344;49.932;8.308;2023-04-23T15:02:07;21.90;99.90
12557;DHT22;6344;49.932;8.308;2023-04-23T15:04:36;21.50;99.90
12557;DHT22;6344;49.932;8.308;2023-04-23T15:07:03;21.30;99.90
12557;DHT22;6344;49.932;8.308;2023-04-23T15:09:29;20.90;99.90
12557;DHT22;6344;49.932;8.308;2023-04-23T15:11:57;20.60;99.90
12557;DHT22;6344;49.932;8.308;2023-04-23T15:14:29;20.60;99.90
12557;DHT22;6344;49.932;8.308;2023-04-23T15:16:56;20.70;99.90
12557;DHT22;6344;49.932;8.308;2023-04-23T15:19:23;20.40;99.90
12557;DHT22;6344;49.932;8.308;2023-04-23T15:21:50;20.30;99.90
12557;DHT22;6344;49.932;8.308;2023-04-23T15:24:16;20.20;99.90
12557;DHT22;6344;49.932;8.308;2023-04-23T15:26:43;20.30;99.90
12557;DHT22;6344;49.932;8.308;2023-04-23T15:29:12;20.10;99.90
12557;DHT22;6344;49.932;8.308;2023-04-23T15:31:39;20.10;99.90
12557;DHT22;6344;49.932;8.308;2023-04-23T15:34:06;20.00;99.90
12557;DHT22;6344;49.932;8.308;2023-04-23T15:36:33;19.90;99.90
12557;DHT22;6344;49.932;8.308;2023-04-23T15:39:01;19.70;99.90
12557;DHT22;6344;49.932;8.308;2023-04-23T15:41:28;19.60;99.90
12557;DHT22;6344;49.932;8.308;2023-04-23T15:43:55;19.50;99.90
12557;DHT22;6344;49.932;8.308;2023-04-23T15:46:23;19.20;99.90
12557;DHT22;6344;49.932;8.308;2023-04-23T15:48:49;19.30;99.90